Aviation Digital Data Service (ADDS)

Output produced by METARs form (0253 UTC 21 September 2021)
found at http://aviationweather.gov/metar/data/
 
KSLC 202320Z 2100/2206 35011KT P6SM FEW080 
     FM210500 14006KT P6SM SKC 
     FM211800 33007KT P6SM SKC 
     FM220400 14006KT P6SM SKC